sensor_id;sensor_type;location;lat;lon;timestamp;temperature;humidity
10129;DHT22;5104;50.720;7.044;2023-05-14T00:01:33;10.40;99.90
10129;DHT22;5104;50.720;7.044;2023-05-14T00:04:01;10.30;99.90
10129;DHT22;5104;50.720;7.044;2023-05-14T00:06:28;10.30;99.90
10129;DHT22;5104;50.720;7.044;2023-05-14T00:08:56;10.30;99.90
10129;DHT22;5104;50.720;7.044;2023-05-14T00:11:23;10.20;99.90
10129;DHT22;5104;50.720;7.044;2023-05-14T00:13:50;10.20;99.90
10129;DHT22;5104;50.720;7.044;2023-05-14T00:16:17;10.20;99.90
10129;DHT22;5104;50.720;7.044;2023-05-14T00:18:43;10.10;99.90
10129;DHT22;5104;50.720;7.044;2023-05-14T00:21:12;9.90;99.90
10129;DHT22;5104;50.720;7.044;2023-05-14T00:23:39;9.90;99.90
10129;DHT22;5104;50.720;7.044;2023-05-14T00:26:05;9.80;99.90
10129;DHT22;5104;50.720;7.044;2023-05-14T00:28:32;9.80;99.90
10129;DHT22;5104;50.720;7.044;2023-05-14T00:30:59;9.80;99.90
10129;DHT22;5104;50.720;7.044;2023-05-14T00:33:26;9.70;99.90
10129;DHT22;5104;50.720;7.044;2023-05-14T00:35:53;9.70;99.90
10129;DHT22;5104;50.720;7.044;2023-05-14T00:38:21;9.70;99.90
10129;DHT22;5104;50.720;7.044;2023-05-14T00:40:48;9.70;99.90
10129;DHT22;5104;50.720;7.044;2023-05-14T00:43:16;9.70;99.90
10129;DHT22;5104;50.720;7.044;2023-05-14T00:45:44;9.70;99.90
10129;DHT22;5104;50.720;7.044;2023-05-14T00:48:11;9.70;99.90
10129;DHT22;5104;50.720;7.044;2023-05-14T00:50:39;9.80;99.90
10129;DHT22;5104;50.720;7.044;2023-05-14T00:53:05;9.70;99.90
10129;DHT22;5104;50.720;7.044;2023-05-14T00:55:37;9.80;99.90
10129;DHT22;5104;50.720;7.044;2023-05-14T00:58:06;9.80;99.90
10129;DHT22;5104;50.720;7.044;2023-05-14T01:00:34;9.70;99.90
10129;DHT22;5104;50.720;7.044;2023-05-14T01:03:02;9.70;99.90
10129;DHT22;5104;50.720;7.044;2023-05-14T01:05:31;9.70;99.90
10129;DHT22;5104;50.720;7.044;2023-05-14T01:08:08;9.60;99.90
10129;DHT22;5104;50.720;7.044;2023-05-14T01:10:44;9.70;99.90
10129;DHT22;5104;50.720;7.044;2023-05-14T01:13:20;9.70;99.90
10129;DHT22;5104;50.720;7.044;2023-05-14T01:15:48;9.60;99.90
10129;DHT22;5104;50.720;7.044;2023-05-14T01:18:17;9.60;99.90
10129;DHT22;5104;50.720;7.044;2023-05-14T01:20:45;9.60;99.90
10129;DHT22;5104;50.720;7.044;2023-05-14T01:23:13;9.50;99.90
10129;DHT22;5104;50.720;7.044;2023-05-14T01:25:40;9.40;99.90
10129;DHT22;5104;50.720;7.044;2023-05-14T01:28:11;9.30;99.90
10129;DHT22;5104;50.720;7.044;2023-05-14T01:30:46;9.30;99.90
10129;DHT22;5104;50.720;7.044;2023-05-14T01:33:17;9.30;99.90
10129;DHT22;5104;50.720;7.044;2023-05-14T01:35:44;9.30;99.90
10129;DHT22;5104;50.720;7.044;2023-05-14T01:38:15;9.20;99.90
10129;DHT22;5104;50.720;7.044;2023-05-14T01:40:44;9.20;99.90
10129;DHT22;5104;50.720;7.044;2023-05-14T01:43:12;9.20;99.90
10129;DHT22;5104;50.720;7.044;2023-05-14T01:45:39;9.20;99.90
10129;DHT22;5104;50.720;7.044;2023-05-14T01:48:07;9.10;99.90
10129;DHT22;5104;50.720;7.044;2023-05-14T01:50:34;9.10;99.90
10129;DHT22;5104;50.720;7.044;2023-05-14T01:53:00;9.10;99.90
10129;DHT22;5104;50.720;7.044;2023-05-14T01:55:29;9.10;99.90
10129;DHT22;5104;50.720;7.044;2023-05-14T01:57:55;9.10;99.90
10129;DHT22;5104;50.720;7.044;2023-05-14T02:00:23;9.00;99.90
10129;DHT22;5104;50.720;7.044;2023-05-14T02:02:50;9.00;99.90
10129;DHT22;5104;50.720;7.044;2023-05-14T02:05:17;9.00;99.90
10129;DHT22;5104;50.720;7.044;2023-05-14T02:07:44;9.00;99.90
10129;DHT22;5104;50.720;7.044;2023-05-14T02:10:11;9.00;99.90
10129;DHT22;5104;50.720;7.044;2023-05-14T02:12:39;8.90;99.90
10129;DHT22;5104;50.720;7.044;2023-05-14T02:15:07;8.90;99.90
10129;DHT22;5104;50.720;7.044;2023-05-14T02:17:35;8.90;99.90
10129;DHT22;5104;50.720;7.044;2023-05-14T02:20:03;8.90;99.90
10129;DHT22;5104;50.720;7.044;2023-05-14T02:22:29;8.80;99.90
10129;DHT22;5104;50.720;7.044;2023-05-14T02:24:56;8.80;99.90
10129;DHT22;5104;50.720;7.044;2023-05-14T02:27:23;8.70;99.90
10129;DHT22;5104;50.720;7.044;2023-05-14T02:29:52;8.60;99.90
10129;DHT22;5104;50.720;7.044;2023-05-14T02:32:18;8.60;99.90
10129;DHT22;5104;50.720;7.044;2023-05-14T02:34:45;8.50;99.90
10129;DHT22;5104;50.720;7.044;2023-05-14T02:37:12;8.40;99.90
10129;DHT22;5104;50.720;7.044;2023-05-14T02:39:39;8.40;99.90
10129;DHT22;5104;50.720;7.044;2023-05-14T02:42:06;8.40;99.90
10129;DHT22;5104;50.720;7.044;2023-05-14T02:44:33;8.40;99.90
10129;DHT22;5104;50.720;7.044;2023-05-14T02:47:01;8.40;99.90
10129;DHT22;5104;50.720;7.044;2023-05-14T02:49:28;8.50;99.90
10129;DHT22;5104;50.720;7.044;2023-05-14T02:51:55;8.50;99.90
10129;DHT22;5104;50.720;7.044;2023-05-14T02:54:22;8.50;99.90
10129;DHT22;5104;50.720;7.044;2023-05-14T02:56:49;8.50;99.90
10129;DHT22;5104;50.720;7.044;2023-05-14T02:59:15;8.50;99.90
10129;DHT22;5104;50.720;7.044;2023-05-14T03:01:42;8.50;99.90
10129;DHT22;5104;50.720;7.044;2023-05-14T03:04:11;8.50;99.90
10129;DHT22;5104;50.720;7.044;2023-05-14T03:06:38;8.50;99.90
10129;DHT22;5104;50.720;7.044;2023-05-14T03:09:04;8.50;99.90
10129;DHT22;5104;50.720;7.044;2023-05-14T03:11:32;8.50;99.90
10129;DHT22;5104;50.720;7.044;2023-05-14T03:13:59;8.50;99.90
10129;DHT22;5104;50.720;7.044;2023-05-14T03:16:26;8.50;99.90
10129;DHT22;5104;50.720;7.044;2023-05-14T03:18:52;8.40;99.90
10129;DHT22;5104;50.720;7.044;2023-05-14T03:21:21;8.30;99.90
10129;DHT22;5104;50.720;7.044;2023-05-14T03:23:47;8.10;99.90
10129;DHT22;5104;50.720;7.044;2023-05-14T03:26:15;8.00;99.90
10129;DHT22;5104;50.720;7.044;2023-05-14T03:28:42;8.00;99.90
10129;DHT22;5104;50.720;7.044;2023-05-14T03:31:09;7.90;99.90
10129;DHT22;5104;50.720;7.044;2023-05-14T03:33:37;7.90;99.90
10129;DHT22;5104;50.720;7.044;2023-05-14T03:36:04;7.90;99.90
10129;DHT22;5104;50.720;7.044;2023-05-14T03:38:33;8.00;99.90
10129;DHT22;5104;50.720;7.044;2023-05-14T03:41:00;8.10;99.90
10129;DHT22;5104;50.720;7.044;2023-05-14T03:43:26;8.10;99.90
10129;DHT22;5104;50.720;7.044;2023-05-14T03:45:53;8.10;99.90
10129;DHT22;5104;50.720;7.044;2023-05-14T03:48:20;8.00;99.90
10129;DHT22;5104;50.720;7.044;2023-05-14T03:50:47;7.90;99.90
10129;DHT22;5104;50.720;7.044;2023-05-14T03:53:14;7.90;99.90
10129;DHT22;5104;50.720;7.044;2023-05-14T03:55:42;7.90;99.90
10129;DHT22;5104;50.720;7.044;2023-05-14T03:58:09;8.00;99.90
10129;DHT22;5104;50.720;7.044;2023-05-14T04:00:39;8.10;99.90
10129;DHT22;5104;50.720;7.044;2023-05-14T04:03:06;8.10;99.90
10129;DHT22;5104;50.720;7.044;2023-05-14T04:05:33;8.20;99.90
10129;DHT22;5104;50.720;7.044;2023-05-14T04:08:00;8.20;99.90
10129;DHT22;5104;50.720;7.044;2023-05-14T04:10:27;8.20;99.90
10129;DHT22;5104;50.720;7.044;2023-05-14T04:12:55;8.30;99.90
10129;DHT22;5104;50.720;7.044;2023-05-14T04:15:22;8.20;99.90
10129;DHT22;5104;50.720;7.044;2023-05-14T04:17:49;8.30;99.90
10129;DHT22;5104;50.720;7.044;2023-05-14T04:20:16;8.30;99.90
10129;DHT22;5104;50.720;7.044;2023-05-14T04:22:43;8.30;99.90
10129;DHT22;5104;50.720;7.044;2023-05-14T04:25:10;8.40;99.90
10129;DHT22;5104;50.720;7.044;2023-05-14T04:27:37;8.40;99.90
10129;DHT22;5104;50.720;7.044;2023-05-14T04:30:09;8.40;99.90
10129;DHT22;5104;50.720;7.044;2023-05-14T04:32:36;8.50;99.90
10129;DHT22;5104;50.720;7.044;2023-05-14T04:35:04;8.60;99.90
10129;DHT22;5104;50.720;7.044;2023-05-14T04:37:31;8.60;99.90
10129;DHT22;5104;50.720;7.044;2023-05-14T04:39:58;8.70;99.90
10129;DHT22;5104;50.720;7.044;2023-05-14T04:42:25;8.70;99.90
10129;DHT22;5104;50.720;7.044;2023-05-14T04:44:52;8.70;99.90
10129;DHT22;5104;50.720;7.044;2023-05-14T04:47:20;8.70;99.90
10129;DHT22;5104;50.720;7.044;2023-05-14T04:49:47;8.80;99.90
10129;DHT22;5104;50.720;7.044;2023-05-14T04:52:14;8.90;99.90
10129;DHT22;5104;50.720;7.044;2023-05-14T04:54:41;8.90;99.90
10129;DHT22;5104;50.720;7.044;2023-05-14T04:57:07;9.00;99.90
10129;DHT22;5104;50.720;7.044;2023-05-14T04:59:34;9.10;99.90
10129;DHT22;5104;50.720;7.044;2023-05-14T05:02:01;9.20;99.90
10129;DHT22;5104;50.720;7.044;2023-05-14T05:04:29;9.30;99.90
10129;DHT22;5104;50.720;7.044;2023-05-14T05:06:56;9.40;99.90
10129;DHT22;5104;50.720;7.044;2023-05-14T05:09:23;9.40;99.90
10129;DHT22;5104;50.720;7.044;2023-05-14T05:11:50;9.50;99.90
10129;DHT22;5104;50.720;7.044;2023-05-14T05:14:17;9.60;99.90
10129;DHT22;5104;50.720;7.044;2023-05-14T05:16:44;9.60;99.90
10129;DHT22;5104;50.720;7.044;2023-05-14T05:19:11;9.70;99.90
10129;DHT22;5104;50.720;7.044;2023-05-14T05:21:39;9.80;99.90
10129;DHT22;5104;50.720;7.044;2023-05-14T05:24:07;9.90;99.90
10129;DHT22;5104;50.720;7.044;2023-05-14T05:26:34;10.00;99.90
10129;DHT22;5104;50.720;7.044;2023-05-14T05:29:02;10.10;99.90
10129;DHT22;5104;50.720;7.044;2023-05-14T05:31:29;10.20;99.90
10129;DHT22;5104;50.720;7.044;2023-05-14T05:33:57;10.30;99.90
10129;DHT22;5104;50.720;7.044;2023-05-14T05:36:24;10.40;99.90
10129;DHT22;5104;50.720;7.044;2023-05-14T05:38:54;10.60;99.90
10129;DHT22;5104;50.720;7.044;2023-05-14T05:41:21;10.70;99.90
10129;DHT22;5104;50.720;7.044;2023-05-14T05:43:48;10.80;99.90
10129;DHT22;5104;50.720;7.044;2023-05-14T05:46:14;11.00;99.90
10129;DHT22;5104;50.720;7.044;2023-05-14T05:48:41;11.10;99.90
10129;DHT22;5104;50.720;7.044;2023-05-14T05:51:08;11.30;99.90
10129;DHT22;5104;50.720;7.044;2023-05-14T05:53:37;11.40;99.90
10129;DHT22;5104;50.720;7.044;2023-05-14T05:56:06;11.60;99.90
10129;DHT22;5104;50.720;7.044;2023-05-14T05:58:33;11.70;99.90
10129;DHT22;5104;50.720;7.044;2023-05-14T06:00:59;11.90;99.90
10129;DHT22;5104;50.720;7.044;2023-05-14T06:03:27;12.10;99.90
10129;DHT22;5104;50.720;7.044;2023-05-14T06:05:53;12.20;99.90
10129;DHT22;5104;50.720;7.044;2023-05-14T06:08:20;12.40;99.90
10129;DHT22;5104;50.720;7.044;2023-05-14T06:10:47;12.40;99.90
10129;DHT22;5104;50.720;7.044;2023-05-14T06:13:15;12.60;99.90
10129;DHT22;5104;50.720;7.044;2023-05-14T06:15:42;12.80;99.90
10129;DHT22;5104;50.720;7.044;2023-05-14T06:18:09;12.90;99.90
10129;DHT22;5104;50.720;7.044;2023-05-14T06:20:36;13.10;99.90
10129;DHT22;5104;50.720;7.044;2023-05-14T06:23:03;13.10;99.90
10129;DHT22;5104;50.720;7.044;2023-05-14T06:25:30;13.30;99.90
10129;DHT22;5104;50.720;7.044;2023-05-14T06:27:57;13.40;99.90
10129;DHT22;5104;50.720;7.044;2023-05-14T06:30:25;13.60;99.90
10129;DHT22;5104;50.720;7.044;2023-05-14T06:32:52;13.80;99.90
10129;DHT22;5104;50.720;7.044;2023-05-14T06:35:19;13.90;99.90
10129;DHT22;5104;50.720;7.044;2023-05-14T06:37:46;13.90;99.90
10129;DHT22;5104;50.720;7.044;2023-05-14T06:40:13;13.80;1.00
10129;DHT22;5104;50.720;7.044;2023-05-14T06:42:41;13.90;99.90
10129;DHT22;5104;50.720;7.044;2023-05-14T06:45:08;13.90;1.00
10129;DHT22;5104;50.720;7.044;2023-05-14T06:47:36;14.00;1.00
10129;DHT22;5104;50.720;7.044;2023-05-14T06:50:04;14.10;99.90
10129;DHT22;5104;50.720;7.044;2023-05-14T06:52:31;14.00;1.00
10129;DHT22;5104;50.720;7.044;2023-05-14T06:54:58;14.10;1.00
10129;DHT22;5104;50.720;7.044;2023-05-14T06:57:25;14.00;99.90
10129;DHT22;5104;50.720;7.044;2023-05-14T06:59:51;13.80;99.90
10129;DHT22;5104;50.720;7.044;2023-05-14T07:02:18;13.70;99.90
10129;DHT22;5104;50.720;7.044;2023-05-14T07:04:46;13.70;1.00
10129;DHT22;5104;50.720;7.044;2023-05-14T07:07:13;13.80;1.00
10129;DHT22;5104;50.720;7.044;2023-05-14T07:09:44;13.90;1.00
10129;DHT22;5104;50.720;7.044;2023-05-14T07:12:11;13.90;99.90
10129;DHT22;5104;50.720;7.044;2023-05-14T07:14:38;14.10;1.00
10129;DHT22;5104;50.720;7.044;2023-05-14T07:17:05;14.20;99.90
10129;DHT22;5104;50.720;7.044;2023-05-14T07:19:32;14.30;99.90
10129;DHT22;5104;50.720;7.044;2023-05-14T07:22:00;14.40;1.00
10129;DHT22;5104;50.720;7.044;2023-05-14T07:24:27;14.40;99.90
10129;DHT22;5104;50.720;7.044;2023-05-14T07:26:54;14.60;99.90
10129;DHT22;5104;50.720;7.044;2023-05-14T07:29:21;14.70;1.00
10129;DHT22;5104;50.720;7.044;2023-05-14T07:31:49;14.80;1.00
10129;DHT22;5104;50.720;7.044;2023-05-14T07:34:17;14.90;99.90
10129;DHT22;5104;50.720;7.044;2023-05-14T07:36:44;15.00;1.00
10129;DHT22;5104;50.720;7.044;2023-05-14T07:39:12;15.10;99.90
10129;DHT22;5104;50.720;7.044;2023-05-14T07:41:39;15.00;1.00
10129;DHT22;5104;50.720;7.044;2023-05-14T07:44:06;15.20;1.00
10129;DHT22;5104;50.720;7.044;2023-05-14T07:46:33;15.30;1.00
10129;DHT22;5104;50.720;7.044;2023-05-14T07:49:00;15.30;99.30
10129;DHT22;5104;50.720;7.044;2023-05-14T07:51:27;15.60;1.00
10129;DHT22;5104;50.720;7.044;2023-05-14T07:53:54;15.70;99.90
10129;DHT22;5104;50.720;7.044;2023-05-14T07:56:22;15.70;15.70
10129;DHT22;5104;50.720;7.044;2023-05-14T07:58:50;15.90;1.00
10129;DHT22;5104;50.720;7.044;2023-05-14T08:01:17;15.90;1.00
10129;DHT22;5104;50.720;7.044;2023-05-14T08:03:44;16.00;1.00
10129;DHT22;5104;50.720;7.044;2023-05-14T08:06:11;16.10;93.20
10129;DHT22;5104;50.720;7.044;2023-05-14T08:08:38;16.20;1.00
10129;DHT22;5104;50.720;7.044;2023-05-14T08:11:05;16.20;99.90
10129;DHT22;5104;50.720;7.044;2023-05-14T08:13:33;16.30;99.90
10129;DHT22;5104;50.720;7.044;2023-05-14T08:16:00;16.40;1.00
10129;DHT22;5104;50.720;7.044;2023-05-14T08:18:27;16.40;1.00
10129;DHT22;5104;50.720;7.044;2023-05-14T08:20:54;16.50;1.00
10129;DHT22;5104;50.720;7.044;2023-05-14T08:23:21;16.40;1.00
10129;DHT22;5104;50.720;7.044;2023-05-14T08:25:48;16.40;99.90
10129;DHT22;5104;50.720;7.044;2023-05-14T08:28:15;16.50;99.90
10129;DHT22;5104;50.720;7.044;2023-05-14T08:30:43;16.50;1.00
10129;DHT22;5104;50.720;7.044;2023-05-14T08:33:10;16.60;1.00
10129;DHT22;5104;50.720;7.044;2023-05-14T08:35:37;16.80;99.90
10129;DHT22;5104;50.720;7.044;2023-05-14T08:38:04;17.00;99.20
10129;DHT22;5104;50.720;7.044;2023-05-14T08:40:31;17.10;1.00
10129;DHT22;5104;50.720;7.044;2023-05-14T08:42:59;17.30;1.00
10129;DHT22;5104;50.720;7.044;2023-05-14T08:45:29;17.30;99.90
10129;DHT22;5104;50.720;7.044;2023-05-14T08:48:00;17.40;99.90
10129;DHT22;5104;50.720;7.044;2023-05-14T08:50:30;17.40;99.90
10129;DHT22;5104;50.720;7.044;2023-05-14T08:52:57;17.40;63.90
10129;DHT22;5104;50.720;7.044;2023-05-14T08:55:25;17.40;99.90
10129;DHT22;5104;50.720;7.044;2023-05-14T08:57:53;17.50;99.90
10129;DHT22;5104;50.720;7.044;2023-05-14T09:00:21;17.50;1.00
10129;DHT22;5104;50.720;7.044;2023-05-14T09:02:49;17.60;99.90
10129;DHT22;5104;50.720;7.044;2023-05-14T09:05:18;17.70;52.10
10129;DHT22;5104;50.720;7.044;2023-05-14T09:07:46;17.70;1.00
10129;DHT22;5104;50.720;7.044;2023-05-14T09:10:14;17.70;1.00
10129;DHT22;5104;50.720;7.044;2023-05-14T09:12:41;17.70;1.00
10129;DHT22;5104;50.720;7.044;2023-05-14T09:15:09;17.90;1.00
10129;DHT22;5104;50.720;7.044;2023-05-14T09:17:36;18.00;1.00
10129;DHT22;5104;50.720;7.044;2023-05-14T09:20:03;18.10;1.00
10129;DHT22;5104;50.720;7.044;2023-05-14T09:22:33;18.20;1.00
10129;DHT22;5104;50.720;7.044;2023-05-14T09:25:04;18.20;1.00
10129;DHT22;5104;50.720;7.044;2023-05-14T09:27:32;18.20;1.00
10129;DHT22;5104;50.720;7.044;2023-05-14T09:30:09;18.30;1.00
10129;DHT22;5104;50.720;7.044;2023-05-14T09:32:38;18.50;1.00
10129;DHT22;5104;50.720;7.044;2023-05-14T09:35:16;18.50;1.00
10129;DHT22;5104;50.720;7.044;2023-05-14T09:37:46;18.50;99.90
10129;DHT22;5104;50.720;7.044;2023-05-14T09:40:14;18.40;99.90
10129;DHT22;5104;50.720;7.044;2023-05-14T09:42:42;18.60;99.90
10129;DHT22;5104;50.720;7.044;2023-05-14T09:45:09;18.70;99.90
10129;DHT22;5104;50.720;7.044;2023-05-14T09:47:37;18.60;99.90
10129;DHT22;5104;50.720;7.044;2023-05-14T09:50:06;18.70;77.80
10129;DHT22;5104;50.720;7.044;2023-05-14T09:52:33;18.60;99.90
10129;DHT22;5104;50.720;7.044;2023-05-14T09:55:01;18.60;29.90
10129;DHT22;5104;50.720;7.044;2023-05-14T09:57:28;18.60;99.90
10129;DHT22;5104;50.720;7.044;2023-05-14T09:59:55;18.60;99.90
10129;DHT22;5104;50.720;7.044;2023-05-14T10:02:23;18.90;99.90
10129;DHT22;5104;50.720;7.044;2023-05-14T10:04:53;19.10;99.90
10129;DHT22;5104;50.720;7.044;2023-05-14T10:07:26;19.00;1.00
10129;DHT22;5104;50.720;7.044;2023-05-14T10:09:58;18.80;1.00
10129;DHT22;5104;50.720;7.044;2023-05-14T10:12:31;19.00;1.00
10129;DHT22;5104;50.720;7.044;2023-05-14T10:15:01;19.10;75.70
10129;DHT22;5104;50.720;7.044;2023-05-14T10:17:31;19.20;1.00
10129;DHT22;5104;50.720;7.044;2023-05-14T10:20:01;19.10;1.00
10129;DHT22;5104;50.720;7.044;2023-05-14T10:22:33;19.20;1.00
10129;DHT22;5104;50.720;7.044;2023-05-14T10:25:01;19.20;1.00
10129;DHT22;5104;50.720;7.044;2023-05-14T10:27:30;19.40;1.00
10129;DHT22;5104;50.720;7.044;2023-05-14T10:29:57;19.40;1.00
10129;DHT22;5104;50.720;7.044;2023-05-14T10:32:25;19.60;1.00
10129;DHT22;5104;50.720;7.044;2023-05-14T10:34:52;19.70;99.90
10129;DHT22;5104;50.720;7.044;2023-05-14T10:37:21;19.90;1.00
10129;DHT22;5104;50.720;7.044;2023-05-14T10:39:49;19.90;99.90
10129;DHT22;5104;50.720;7.044;2023-05-14T10:42:18;19.90;99.90
10129;DHT22;5104;50.720;7.044;2023-05-14T10:44:52;20.10;99.90
10129;DHT22;5104;50.720;7.044;2023-05-14T10:47:20;20.20;99.90
10129;DHT22;5104;50.720;7.044;2023-05-14T10:49:48;20.30;99.90
10129;DHT22;5104;50.720;7.044;2023-05-14T10:52:16;20.20;99.90
10129;DHT22;5104;50.720;7.044;2023-05-14T10:54:50;20.10;99.90
10129;DHT22;5104;50.720;7.044;2023-05-14T10:57:18;20.20;99.90
10129;DHT22;5104;50.720;7.044;2023-05-14T10:59:49;20.40;1.00
10129;DHT22;5104;50.720;7.044;2023-05-14T11:02:20;20.60;99.90
10129;DHT22;5104;50.720;7.044;2023-05-14T11:04:53;20.70;16.20
10129;DHT22;5104;50.720;7.044;2023-05-14T11:07:24;20.80;99.90
10129;DHT22;5104;50.720;7.044;2023-05-14T11:09:53;20.90;93.20
10129;DHT22;5104;50.720;7.044;2023-05-14T11:12:25;21.20;99.90
10129;DHT22;5104;50.720;7.044;2023-05-14T11:14:53;21.60;29.80
10129;DHT22;5104;50.720;7.044;2023-05-14T11:17:21;21.70;1.00
10129;DHT22;5104;50.720;7.044;2023-05-14T11:19:48;22.20;1.00
10129;DHT22;5104;50.720;7.044;2023-05-14T11:22:15;22.40;1.00
10129;DHT22;5104;50.720;7.044;2023-05-14T11:24:42;22.30;1.00
10129;DHT22;5104;50.720;7.044;2023-05-14T11:27:09;22.30;1.00
10129;DHT22;5104;50.720;7.044;2023-05-14T11:29:37;21.80;1.00
10129;DHT22;5104;50.720;7.044;2023-05-14T11:32:05;21.60;1.00
10129;DHT22;5104;50.720;7.044;2023-05-14T11:34:33;21.20;1.00
10129;DHT22;5104;50.720;7.044;2023-05-14T11:37:02;21.00;1.00
10129;DHT22;5104;50.720;7.044;2023-05-14T11:39:30;20.90;1.00
10129;DHT22;5104;50.720;7.044;2023-05-14T11:41:57;20.90;1.00
10129;DHT22;5104;50.720;7.044;2023-05-14T11:44:24;20.70;1.00
10129;DHT22;5104;50.720;7.044;2023-05-14T11:46:55;20.50;1.00
10129;DHT22;5104;50.720;7.044;2023-05-14T11:49:22;20.50;1.00
10129;DHT22;5104;50.720;7.044;2023-05-14T11:51:56;20.40;1.00
10129;DHT22;5104;50.720;7.044;2023-05-14T11:54:25;20.40;1.00
10129;DHT22;5104;50.720;7.044;2023-05-14T11:56:53;20.40;1.00
10129;DHT22;5104;50.720;7.044;2023-05-14T11:59:22;20.50;1.00
10129;DHT22;5104;50.720;7.044;2023-05-14T12:01:49;20.60;1.00
10129;DHT22;5104;50.720;7.044;2023-05-14T12:04:17;20.90;1.00
10129;DHT22;5104;50.720;7.044;2023-05-14T12:06:47;21.00;1.00
10129;DHT22;5104;50.720;7.044;2023-05-14T12:09:16;21.00;1.00
10129;DHT22;5104;50.720;7.044;2023-05-14T12:11:44;20.80;1.00
10129;DHT22;5104;50.720;7.044;2023-05-14T12:14:13;21.10;1.00
10129;DHT22;5104;50.720;7.044;2023-05-14T12:16:40;21.50;1.00
10129;DHT22;5104;50.720;7.044;2023-05-14T12:19:08;22.00;1.00
10129;DHT22;5104;50.720;7.044;2023-05-14T12:21:37;22.50;1.00
10129;DHT22;5104;50.720;7.044;2023-05-14T12:24:04;22.70;1.00
10129;DHT22;5104;50.720;7.044;2023-05-14T12:26:36;23.00;1.00
10129;DHT22;5104;50.720;7.044;2023-05-14T12:29:04;23.40;99.90
10129;DHT22;5104;50.720;7.044;2023-05-14T12:31:33;23.50;99.90
10129;DHT22;5104;50.720;7.044;2023-05-14T12:34:01;23.70;99.90
10129;DHT22;5104;50.720;7.044;2023-05-14T12:36:28;23.80;99.90
10129;DHT22;5104;50.720;7.044;2023-05-14T12:38:58;23.40;99.90
10129;DHT22;5104;50.720;7.044;2023-05-14T12:41:26;23.30;99.90
10129;DHT22;5104;50.720;7.044;2023-05-14T12:43:54;23.40;99.90
10129;DHT22;5104;50.720;7.044;2023-05-14T12:46:21;23.60;99.90
10129;DHT22;5104;50.720;7.044;2023-05-14T12:48:48;23.30;99.90
10129;DHT22;5104;50.720;7.044;2023-05-14T12:51:16;23.00;99.90
10129;DHT22;5104;50.720;7.044;2023-05-14T12:53:43;23.00;99.90
10129;DHT22;5104;50.720;7.044;2023-05-14T12:56:10;22.80;1.00
10129;DHT22;5104;50.720;7.044;2023-05-14T12:58:37;23.00;1.00
10129;DHT22;5104;50.720;7.044;2023-05-14T13:01:06;23.10;1.00
10129;DHT22;5104;50.720;7.044;2023-05-14T13:03:33;23.00;99.90
10129;DHT22;5104;50.720;7.044;2023-05-14T13:06:00;23.20;99.90
10129;DHT22;5104;50.720;7.044;2023-05-14T13:08:27;23.40;99.90
10129;DHT22;5104;50.720;7.044;2023-05-14T13:10:54;23.10;1.00
10129;DHT22;5104;50.720;7.044;2023-05-14T13:13:21;23.30;1.00
10129;DHT22;5104;50.720;7.044;2023-05-14T13:15:48;23.40;1.00
10129;DHT22;5104;50.720;7.044;2023-05-14T13:18:17;23.00;99.90
10129;DHT22;5104;50.720;7.044;2023-05-14T13:20:44;23.40;1.00
10129;DHT22;5104;50.720;7.044;2023-05-14T13:23:12;23.50;99.90
10129;DHT22;5104;50.720;7.044;2023-05-14T13:25:38;23.80;99.90
10129;DHT22;5104;50.720;7.044;2023-05-14T13:28:05;24.20;99.90
10129;DHT22;5104;50.720;7.044;2023-05-14T13:30:32;24.50;99.90
10129;DHT22;5104;50.720;7.044;2023-05-14T13:32:59;24.90;99.90
10129;DHT22;5104;50.720;7.044;2023-05-14T13:35:27;24.50;99.90
10129;DHT22;5104;50.720;7.044;2023-05-14T13:37:54;24.30;99.90
10129;DHT22;5104;50.720;7.044;2023-05-14T13:40:21;24.20;99.90
10129;DHT22;5104;50.720;7.044;2023-05-14T13:42:48;24.30;99.90
10129;DHT22;5104;50.720;7.044;2023-05-14T13:45:15;24.40;99.90
10129;DHT22;5104;50.720;7.044;2023-05-14T13:47:42;23.60;99.90
10129;DHT22;5104;50.720;7.044;2023-05-14T13:50:09;24.10;99.90
10129;DHT22;5104;50.720;7.044;2023-05-14T13:52:37;23.60;99.90
10129;DHT22;5104;50.720;7.044;2023-05-14T13:55:06;23.70;99.90
10129;DHT22;5104;50.720;7.044;2023-05-14T13:57:32;23.90;99.90
10129;DHT22;5104;50.720;7.044;2023-05-14T14:00:00;23.80;1.00
10129;DHT22;5104;50.720;7.044;2023-05-14T14:02:27;23.60;99.90
10129;DHT22;5104;50.720;7.044;2023-05-14T14:04:54;23.50;1.00
10129;DHT22;5104;50.720;7.044;2023-05-14T14:07:20;23.40;1.00
10129;DHT22;5104;50.720;7.044;2023-05-14T14:09:49;23.60;99.90
10129;DHT22;5104;50.720;7.044;2023-05-14T14:12:16;23.70;99.90
10129;DHT22;5104;50.720;7.044;2023-05-14T14:14:43;23.70;99.90
10129;DHT22;5104;50.720;7.044;2023-05-14T14:17:10;23.90;99.90
10129;DHT22;5104;50.720;7.044;2023-05-14T14:19:37;24.20;99.90
10129;DHT22;5104;50.720;7.044;2023-05-14T14:22:04;24.80;99.90
10129;DHT22;5104;50.720;7.044;2023-05-14T14:24:31;25.50;99.90
10129;DHT22;5104;50.720;7.044;2023-05-14T14:26:59;25.50;99.90
10129;DHT22;5104;50.720;7.044;2023-05-14T14:29:26;25.40;99.90
10129;DHT22;5104;50.720;7.044;2023-05-14T14:31:55;26.00;99.90
10129;DHT22;5104;50.720;7.044;2023-05-14T14:34:22;26.40;99.90
10129;DHT22;5104;50.720;7.044;2023-05-14T14:36:49;26.30;99.90
10129;DHT22;5104;50.720;7.044;2023-05-14T14:39:16;26.20;99.90
10129;DHT22;5104;50.720;7.044;2023-05-14T14:41:43;25.80;99.90
10129;DHT22;5104;50.720;7.044;2023-05-14T14:44:11;25.90;99.90
10129;DHT22;5104;50.720;7.044;2023-05-14T14:46:38;26.10;99.90
10129;DHT22;5104;50.720;7.044;2023-05-14T14:49:07;26.60;99.90
10129;DHT22;5104;50.720;7.044;2023-05-14T14:51:34;26.50;99.90
10129;DHT22;5104;50.720;7.044;2023-05-14T14:54:01;26.60;99.90
10129;DHT22;5104;50.720;7.044;2023-05-14T14:56:29;27.00;99.90
10129;DHT22;5104;50.720;7.044;2023-05-14T14:58:56;27.50;99.90
10129;DHT22;5104;50.720;7.044;2023-05-14T15:01:25;27.90;99.90
10129;DHT22;5104;50.720;7.044;2023-05-14T15:03:52;28.20;99.90
10129;DHT22;5104;50.720;7.044;2023-05-14T15:06:19;27.90;99.90
10129;DHT22;5104;50.720;7.044;2023-05-14T15:08:46;27.80;99.90
10129;DHT22;5104;50.720;7.044;2023-05-14T15:11:13;27.60;99.90
10129;DHT22;5104;50.720;7.044;2023-05-14T15:13:40;27.80;99.90
10129;DHT22;5104;50.720;7.044;2023-05-14T15:16:07;27.70;99.90
10129;DHT22;5104;50.720;7.044;2023-05-14T15:18:35;27.20;99.90
10129;DHT22;5104;50.720;7.044;2023-05-14T15:21:03;26.70;99.90
10129;DHT22;5104;50.720;7.044;2023-05-14T15:23:30;26.10;99.90
10129;DHT22;5104;50.720;7.044;2023-05-14T15:25:56;25.60;99.90
10129;DHT22;5104;50.720;7.044;2023-05-14T15:28:23;25.20;99.90
10129;DHT22;5104;50.720;7.044;2023-05-14T15:30:50;25.40;99.90
10129;DHT22;5104;50.720;7.044;2023-05-14T15:33:17;25.60;99.90
10129;DHT22;5104;50.720;7.044;2023-05-14T15:35:46;26.40;99.90
10129;DHT22;5104;50.720;7.044;2023-05-14T15:38:13;27.20;99.90
10129;DHT22;5104;50.720;7.044;2023-05-14T15:40:39;28.10;96.60
10129;DHT22;5104;50.720;7.044;2023-05-14T15:43:06;28.50;72.60
10129;DHT22;5104;50.720;7.044;2023-05-14T15:45:33;28.10;39.00
10129;DHT22;5104;50.720;7.044;2023-05-14T15:48:00;27.50;34.90
10129;DHT22;5104;50.720;7.044;2023-05-14T15:50:27;27.60;32.70
10129;DHT22;5104;50.720;7.044;2023-05-14T15:52:56;27.90;27.60
10129;DHT22;5104;50.720;7.044;2023-05-14T15:55:23;28.40;22.20
10129;DHT22;5104;50.720;7.044;2023-05-14T15:57:50;28.60;17.10